Overview Statistics Trail Chart Weather Telemetry Raw packets
 

This is the latest recevied weather packets stored in our database for station/object IZ1HMT-3. If no packets are shown the sender has not sent any weather packets the latest 10 day(s).

<< 3 4 5 6 7 8 9 >>
Time Temp. Humidity Pressure Rain* Wind** Luminosity Snow
1788524330 33.89° C 46% 1019.9 hPa - - - -
1788523726 31.67° C 52% 1020.1 hPa - - - -
1788521913 31.11° C 53% 1020.1 hPa - - - -
1788521309 31.67° C 53% 1020.2 hPa - - - -
1788520705 31.67° C 52% 1020.3 hPa - - - -
1788520101 31.67° C 53% 1020.4 hPa - - - -
1788519497 31.67° C 53% 1020.4 hPa - - - -
1788517073 33.89° C 47% 1020.5 hPa - - - -
1788516469 36.11° C 42% 1020.5 hPa - - - -
1788514053 41.11° C 33% 1020.4 hPa - - - -
1788512844 41.67° C 33% 1020.3 hPa - - - -
1788511635 41.11° C 34% 1020.2 hPa - - - -
1788511031 40° C 36% 1020.1 hPa - - - -
1788510427 39.44° C 38% 1020.1 hPa - - - -
1788509822 38.89° C 39% 1020.1 hPa - - - -
1788509822 38.89° C 39% 1020.1 hPa - - - -
1788509218 38.33° C 39% 1020.1 hPa - - - -
1788508614 36.11° C 43% 1020 hPa - - - -
1788507405 35.56° C 44% 1020 hPa - - - -
1788506801 35.56° C 43% 1019.9 hPa - - - -
1788506197 36.11° C 43% 1019.9 hPa - - - -
1788498006 24.44° C 66% 1019.6 hPa - - - -
1788497403 24.44° C 67% 1019.5 hPa - - - -
1788496799 24.44° C 67% 1019.5 hPa - - - -
1788496195 24.44° C 67% 1019.3 hPa - - - -

* Rain since midnight (hover to see other rain measurements)
** Current wind speed in m/s (hover to see current wind gust speed)